createdAt,value
2019-02-22T00:00:56.294Z,31.80
2019-02-22T00:03:24.950Z,30.87
2019-02-22T00:05:53.602Z,32.23
2019-02-22T00:08:22.255Z,31.00
2019-02-22T00:10:50.958Z,32.97
2019-02-22T00:13:19.627Z,31.37
2019-02-22T00:15:48.251Z,32.40
2019-02-22T00:18:16.871Z,31.63
2019-02-22T00:20:45.510Z,31.43
2019-02-22T00:23:14.160Z,32.90
2019-02-22T00:25:42.786Z,32.53
2019-02-22T00:28:11.409Z,32.40
2019-02-22T00:30:40.051Z,32.10
2019-02-22T00:33:08.724Z,32.40
2019-02-22T00:35:37.367Z,31.80
2019-02-22T00:38:06.259Z,33.03
2019-02-22T00:40:34.881Z,31.20
2019-02-22T00:43:03.561Z,32.10
2019-02-22T00:45:32.164Z,31.90
2019-02-22T00:48:00.795Z,31.60
2019-02-22T00:50:29.421Z,33.20
2019-02-22T00:52:58.062Z,32.83
2019-02-22T00:55:26.699Z,31.50
2019-02-22T00:57:55.341Z,32.97
2019-02-22T01:00:23.963Z,32.20
2019-02-22T01:02:52.627Z,31.17
2019-02-22T01:05:21.395Z,32.47
2019-02-22T01:07:50.181Z,32.27
2019-02-22T01:10:18.813Z,32.80
2019-02-22T01:12:47.479Z,32.37
2019-02-22T01:15:16.112Z,32.63
2019-02-22T01:17:44.880Z,33.00
2019-02-22T01:20:13.508Z,33.37
2019-02-22T01:22:42.442Z,32.87
2019-02-22T01:25:11.083Z,32.50
2019-02-22T01:27:39.811Z,32.63
2019-02-22T01:30:08.828Z,32.47
2019-02-22T01:32:37.746Z,32.37
2019-02-22T01:35:06.505Z,32.60
2019-02-22T01:37:35.220Z,33.63
2019-02-22T01:40:04.049Z,33.67
2019-02-22T01:42:32.667Z,34.47
2019-02-22T01:45:01.439Z,33.97
2019-02-22T01:47:30.325Z,34.60
2019-02-22T01:49:58.943Z,32.10
2019-02-22T01:52:27.604Z,33.07
2019-02-22T01:54:56.248Z,32.30
2019-02-22T01:57:24.875Z,33.20
2019-02-22T01:59:53.519Z,33.70
2019-02-22T02:02:22.171Z,32.33
2019-02-22T02:04:50.826Z,31.47
2019-02-22T02:07:19.716Z,33.77
2019-02-22T02:09:48.382Z,33.67
2019-02-22T02:12:17.088Z,32.60
2019-02-22T02:14:45.995Z,32.90
2019-02-22T02:17:14.683Z,32.30
2019-02-22T02:19:43.363Z,32.30
2019-02-22T02:22:12.010Z,32.80
2019-02-22T02:24:40.663Z,33.37
2019-02-22T02:27:09.298Z,34.40
2019-02-22T02:29:37.952Z,32.20
2019-02-22T02:32:06.824Z,33.60
2019-02-22T02:34:35.483Z,33.33
2019-02-22T02:37:04.206Z,35.87
2019-02-22T02:39:32.841Z,33.10
2019-02-22T02:42:01.469Z,34.73
2019-02-22T02:44:30.119Z,34.53
2019-02-22T02:46:58.749Z,33.67
2019-02-22T02:49:27.386Z,35.70
2019-02-22T02:51:55.987Z,33.47
2019-02-22T02:54:24.616Z,35.57
2019-02-22T02:56:53.242Z,34.83
2019-02-22T02:59:21.886Z,35.43
2019-02-22T03:01:50.498Z,34.70
2019-02-22T03:04:19.141Z,35.43
2019-02-22T03:06:59.241Z,35.93
2019-02-22T03:09:27.874Z,35.77
2019-02-22T03:11:56.500Z,36.10
2019-02-22T03:14:25.164Z,36.43
2019-02-22T03:16:53.784Z,35.80
2019-02-22T03:19:22.432Z,35.27
2019-02-22T03:21:51.048Z,35.53
2019-02-22T03:24:19.728Z,35.10
2019-02-22T03:26:48.382Z,35.40
2019-02-22T03:29:17.024Z,34.27
2019-02-22T03:31:45.655Z,33.60
2019-02-22T03:34:14.284Z,33.87
2019-02-22T03:36:42.909Z,34.27
2019-02-22T03:39:11.545Z,35.13
2019-02-22T03:41:40.182Z,35.77
2019-02-22T03:44:08.910Z,33.17
2019-02-22T03:46:37.519Z,33.60
2019-02-22T03:49:06.160Z,32.80
2019-02-22T03:51:34.764Z,34.03
2019-02-22T03:54:04.299Z,33.57
2019-02-22T03:56:32.927Z,32.80
2019-02-22T03:59:01.607Z,32.97
2019-02-22T04:01:30.334Z,34.20
2019-02-22T04:03:59.127Z,33.50
2019-02-22T04:06:27.774Z,33.20
2019-02-22T04:08:56.399Z,33.77
2019-02-22T04:11:25.140Z,31.27
2019-02-22T04:13:54.074Z,32.13
2019-02-22T04:16:23.032Z,32.13
2019-02-22T04:18:51.777Z,32.00
2019-02-22T04:21:20.477Z,33.10
2019-02-22T04:23:49.100Z,31.80
2019-02-22T04:26:18.000Z,31.00
2019-02-22T04:28:46.611Z,30.60
2019-02-22T04:31:15.465Z,31.50
2019-02-22T04:33:44.212Z,31.53
2019-02-22T04:36:13.011Z,32.03
2019-02-22T04:38:41.629Z,31.63
2019-02-22T04:41:10.299Z,32.80
2019-02-22T04:43:38.930Z,31.60
2019-02-22T04:46:07.637Z,32.00
2019-02-22T04:48:36.251Z,30.67
2019-02-22T04:51:05.141Z,32.30
2019-02-22T04:53:33.794Z,32.30
2019-02-22T04:56:02.466Z,32.90
2019-02-22T04:58:31.085Z,31.97
2019-02-22T05:00:59.736Z,32.93
2019-02-22T05:03:28.355Z,32.80
2019-02-22T05:05:57.321Z,31.43
2019-02-22T05:08:25.958Z,32.83
2019-02-22T05:10:55.565Z,33.50
2019-02-22T05:13:24.248Z,33.50
2019-02-22T05:15:52.879Z,31.90
2019-02-22T05:18:21.496Z,32.97
2019-02-22T05:20:50.140Z,31.97
2019-02-22T05:23:18.763Z,32.30
2019-02-22T05:25:47.412Z,31.80
2019-02-22T05:28:16.059Z,32.67
2019-02-22T05:30:44.714Z,30.63
2019-02-22T05:33:13.644Z,30.97
2019-02-22T05:35:42.317Z,31.50
2019-02-22T05:38:10.927Z,30.60
2019-02-22T05:40:39.910Z,30.27
2019-02-22T05:43:08.552Z,30.37
2019-02-22T05:45:37.524Z,30.17
2019-02-22T05:48:06.150Z,31.57
2019-02-22T05:50:34.850Z,30.30
2019-02-22T05:53:03.475Z,32.83
2019-02-22T05:55:32.521Z,31.40
2019-02-22T05:58:01.515Z,29.87
2019-02-22T06:00:30.163Z,30.90
2019-02-22T06:02:59.051Z,31.20
2019-02-22T06:05:27.976Z,29.83
2019-02-22T06:07:56.592Z,30.43
2019-02-22T06:10:25.487Z,31.83
2019-02-22T06:12:54.100Z,30.80
2019-02-22T06:15:22.779Z,29.90
2019-02-22T06:17:51.672Z,30.10
2019-02-22T06:20:20.359Z,29.43
2019-02-22T06:22:48.986Z,30.70
2019-02-22T06:25:17.617Z,31.10
2019-02-22T06:27:46.231Z,29.97
2019-02-22T06:30:14.867Z,31.00
2019-02-22T06:32:43.509Z,29.87
2019-02-22T06:35:12.340Z,30.67
2019-02-22T06:37:41.014Z,30.57
2019-02-22T06:40:09.847Z,31.07
2019-02-22T06:42:45.704Z,29.27
2019-02-22T06:45:09.082Z,30.10
2019-02-22T06:47:37.737Z,29.57
2019-02-22T06:50:06.731Z,30.10
2019-02-22T06:52:35.436Z,30.60
2019-02-22T06:55:04.242Z,29.43
2019-02-22T06:57:32.879Z,30.00
2019-02-22T07:00:01.511Z,29.63
2019-02-22T07:02:30.139Z,27.93
2019-02-22T07:04:58.777Z,26.80
2019-02-22T07:07:27.433Z,27.50
2019-02-22T07:09:56.084Z,27.70
2019-02-22T07:12:30.595Z,26.50
2019-02-22T07:14:59.260Z,26.63
2019-02-22T07:17:27.903Z,26.10
2019-02-22T07:19:56.560Z,25.80
2019-02-22T07:22:25.268Z,25.47
2019-02-22T07:24:53.892Z,25.47
2019-02-22T07:27:22.577Z,26.13
2019-02-22T07:29:51.251Z,24.87
2019-02-22T07:32:19.920Z,24.33
2019-02-22T07:34:48.524Z,23.13
2019-02-22T07:37:17.381Z,25.80
2019-02-22T07:39:46.096Z,25.30
2019-02-22T07:42:14.724Z,24.77
2019-02-22T07:44:43.364Z,24.20
2019-02-22T07:47:12.304Z,23.30
2019-02-22T07:49:41.040Z,23.17
2019-02-22T07:52:09.687Z,23.27
2019-02-22T07:54:38.326Z,22.03
2019-02-22T07:57:06.952Z,23.33
2019-02-22T07:59:35.599Z,21.67
2019-02-22T08:02:06.036Z,22.67
2019-02-22T08:04:35.042Z,21.60
2019-02-22T08:07:03.737Z,21.60
2019-02-22T08:09:32.376Z,22.40
2019-02-22T08:12:01.302Z,21.80
2019-02-22T08:14:29.943Z,22.27
2019-02-22T08:16:58.828Z,20.20
2019-02-22T08:19:27.587Z,21.87
2019-02-22T08:21:56.218Z,23.13
2019-02-22T08:24:25.982Z,22.23
2019-02-22T08:26:54.805Z,23.40
2019-02-22T08:29:23.686Z,22.50
2019-02-22T08:31:52.351Z,22.10
2019-02-22T08:34:21.051Z,22.47
2019-02-22T08:36:49.669Z,20.90
2019-02-22T08:39:18.323Z,21.53
2019-02-22T08:41:47.092Z,20.37
2019-02-22T08:44:15.783Z,21.70
2019-02-22T08:46:44.410Z,19.90
2019-02-22T08:49:13.112Z,20.67
2019-02-22T08:51:41.750Z,19.77
2019-02-22T08:54:10.418Z,18.17
2019-02-22T08:56:39.127Z,18.87
2019-02-22T08:59:07.785Z,20.90
2019-02-22T09:01:36.393Z,17.87
2019-02-22T09:04:05.031Z,17.73
2019-02-22T09:06:33.663Z,17.23
2019-02-22T09:09:02.327Z,17.30
2019-02-22T09:11:30.981Z,16.80
2019-02-22T09:13:59.615Z,14.97
2019-02-22T09:16:28.529Z,14.30
2019-02-22T09:18:57.184Z,12.77
2019-02-22T09:21:25.804Z,13.27
2019-02-22T09:23:54.462Z,13.43
2019-02-22T09:26:23.091Z,13.27
2019-02-22T09:28:51.777Z,14.83
2019-02-22T09:31:20.412Z,14.20
2019-02-22T09:33:49.060Z,14.47
2019-02-22T09:36:17.688Z,14.83
2019-02-22T09:38:46.336Z,16.03
2019-02-22T09:41:15.005Z,13.97
2019-02-22T09:43:54.309Z,13.83
2019-02-22T09:46:14.628Z,13.47
2019-02-22T09:48:43.359Z,13.87
2019-02-22T09:51:12.031Z,13.73
2019-02-22T09:53:40.657Z,13.93
2019-02-22T09:56:09.294Z,12.47
2019-02-22T09:58:37.925Z,12.60
2019-02-22T10:01:06.548Z,12.17
2019-02-22T10:03:35.557Z,12.00
2019-02-22T10:06:04.513Z,12.07
2019-02-22T10:08:33.342Z,10.80
2019-02-22T10:11:02.008Z,9.67
2019-02-22T10:13:30.637Z,8.53
2019-02-22T10:15:59.282Z,8.60
2019-02-22T10:18:27.923Z,7.93
2019-02-22T10:20:56.545Z,6.70
2019-02-22T10:23:25.183Z,5.80
2019-02-22T10:25:54.083Z,5.37
2019-02-22T10:28:22.832Z,6.20
2019-02-22T10:30:51.489Z,5.30
2019-02-22T10:33:20.104Z,6.37
2019-02-22T10:35:48.715Z,5.70
2019-02-22T10:38:17.367Z,6.60
2019-02-22T10:40:46.108Z,7.17
2019-02-22T10:43:14.738Z,7.60
2019-02-22T10:45:43.363Z,6.70
2019-02-22T10:48:12.008Z,6.00
2019-02-22T10:50:40.647Z,4.90
2019-02-22T10:53:09.274Z,4.83
2019-02-22T10:55:37.928Z,4.97
2019-02-22T10:58:06.551Z,5.20
2019-02-22T11:00:35.253Z,5.23
2019-02-22T11:03:03.906Z,5.40
2019-02-22T11:05:32.708Z,5.50
2019-02-22T11:08:01.332Z,6.60
2019-02-22T11:10:29.979Z,6.90
2019-02-22T11:12:58.627Z,6.60
2019-02-22T11:15:27.613Z,6.57
2019-02-22T11:17:56.257Z,7.03
2019-02-22T11:20:24.912Z,6.60
2019-02-22T11:22:53.612Z,6.60
2019-02-22T11:25:22.299Z,7.63
2019-02-22T11:27:51.182Z,7.20
2019-02-22T11:30:19.901Z,6.80
2019-02-22T11:32:48.513Z,7.33
2019-02-22T11:35:17.376Z,8.07
2019-02-22T11:37:46.235Z,7.73
2019-02-22T11:40:14.959Z,7.50
2019-02-22T11:42:43.605Z,8.57
2019-02-22T11:45:12.475Z,7.93
2019-02-22T11:47:41.804Z,8.40
2019-02-22T11:50:10.545Z,8.00
2019-02-22T11:52:39.167Z,8.10
2019-02-22T11:55:08.197Z,8.07
2019-02-22T11:57:36.846Z,7.73
2019-02-22T12:00:08.706Z,8.50
2019-02-22T12:02:37.339Z,8.90
2019-02-22T12:05:06.040Z,7.60
2019-02-22T12:07:34.656Z,9.17
2019-02-22T12:10:03.412Z,9.80
2019-02-22T12:12:32.043Z,7.93
2019-02-22T12:15:00.800Z,8.33
2019-02-22T12:17:29.431Z,8.43
2019-02-22T12:19:58.163Z,8.73
2019-02-22T12:22:27.183Z,7.27
2019-02-22T12:24:55.835Z,10.07
2019-02-22T12:27:24.739Z,10.07
2019-02-22T12:29:53.975Z,8.20
2019-02-22T12:32:22.623Z,8.73
2019-02-22T12:34:51.311Z,8.27
2019-02-22T12:37:20.126Z,8.23
2019-02-22T12:39:48.927Z,7.67
2019-02-22T12:42:17.826Z,8.30
2019-02-22T12:44:46.449Z,7.87
2019-02-22T12:47:15.559Z,8.00
2019-02-22T12:49:44.453Z,7.20
2019-02-22T12:52:13.108Z,6.40
2019-02-22T12:54:41.770Z,7.80
2019-02-22T12:57:10.399Z,7.90
2019-02-22T12:59:39.070Z,6.83
2019-02-22T13:02:07.747Z,7.27
2019-02-22T13:04:36.393Z,7.00
2019-02-22T13:07:05.032Z,7.10
2019-02-22T13:09:36.875Z,6.50
2019-02-22T13:12:13.663Z,6.23
2019-02-22T13:14:34.383Z,6.47
2019-02-22T13:17:03.009Z,6.10
2019-02-22T13:19:31.639Z,6.00
2019-02-22T13:22:00.280Z,6.57
2019-02-22T13:24:28.949Z,7.20
2019-02-22T13:26:57.623Z,7.10
2019-02-22T13:29:26.308Z,6.47
2019-02-22T13:31:55.794Z,7.50
2019-02-22T13:34:24.758Z,7.77
2019-02-22T13:36:53.419Z,8.00
2019-02-22T13:39:22.054Z,8.10
2019-02-22T13:41:50.673Z,6.90
2019-02-22T13:44:19.591Z,6.70
2019-02-22T13:46:48.265Z,6.87
2019-02-22T13:49:16.968Z,7.20
2019-02-22T13:51:45.586Z,7.07
2019-02-22T13:54:14.260Z,7.00
2019-02-22T13:56:42.876Z,6.80
2019-02-22T13:59:11.939Z,6.77
2019-02-22T14:01:40.675Z,6.67
2019-02-22T14:04:09.411Z,7.70
2019-02-22T14:06:38.111Z,7.10
2019-02-22T14:09:07.131Z,6.90
2019-02-22T14:11:35.748Z,7.00
2019-02-22T14:14:04.479Z,8.50
2019-02-22T14:16:33.088Z,7.80
2019-02-22T14:19:01.724Z,8.97
2019-02-22T14:21:30.351Z,8.30
2019-02-22T14:23:59.005Z,8.73
2019-02-22T14:26:27.664Z,10.00
2019-02-22T14:28:56.326Z,9.83
2019-02-22T14:31:24.967Z,9.67
2019-02-22T14:33:53.607Z,10.73
2019-02-22T14:36:22.695Z,11.40
2019-02-22T14:38:51.642Z,11.90
2019-02-22T14:41:20.365Z,11.40
2019-02-22T14:43:49.280Z,11.30
2019-02-22T14:46:25.535Z,10.97
2019-02-22T14:48:48.292Z,12.00
2019-02-22T14:51:17.135Z,11.63
2019-02-22T14:53:45.777Z,12.70
2019-02-22T14:56:14.423Z,11.23
2019-02-22T14:58:43.462Z,12.33
2019-02-22T15:01:12.487Z,11.00
2019-02-22T15:03:41.175Z,12.70
2019-02-22T15:06:09.846Z,14.33
2019-02-22T15:08:38.500Z,12.80
2019-02-22T15:11:07.161Z,16.80
2019-02-22T15:13:35.767Z,20.30
2019-02-22T15:16:22.544Z,22.30
2019-02-22T15:18:51.169Z,23.80
2019-02-22T15:21:19.811Z,22.40
2019-02-22T15:23:48.596Z,22.60
2019-02-22T15:26:17.288Z,21.00
2019-02-22T15:28:46.007Z,19.90
2019-02-22T15:31:14.682Z,16.53
2019-02-22T15:33:43.321Z,11.83
2019-02-22T15:36:11.967Z,12.30
2019-02-22T15:38:40.888Z,13.00
2019-02-22T15:41:10.148Z,16.77
2019-02-22T15:43:38.943Z,17.97
2019-02-22T15:46:12.323Z,17.83
2019-02-22T15:48:38.701Z,14.83
2019-02-22T15:51:07.563Z,17.37
2019-02-22T15:53:36.262Z,15.77
2019-02-22T15:56:04.899Z,14.73
2019-02-22T15:58:33.921Z,16.10
2019-02-22T16:01:02.594Z,17.50
2019-02-22T16:03:50.831Z,19.63
2019-02-22T16:06:19.511Z,19.67
2019-02-22T16:08:48.141Z,21.07
2019-02-22T16:11:17.921Z,23.20
2019-02-22T16:13:46.540Z,20.07
2019-02-22T16:16:22.898Z,20.70
2019-02-22T16:18:45.644Z,21.27
2019-02-22T16:21:14.316Z,19.77
2019-02-22T16:23:42.956Z,19.07
2019-02-22T16:26:11.639Z,18.43
2019-02-22T16:28:40.286Z,17.17
2019-02-22T16:31:09.096Z,17.30
2019-02-22T16:33:37.720Z,19.30
2019-02-22T16:36:06.351Z,19.30
2019-02-22T16:38:35.044Z,17.40
2019-02-22T16:41:03.690Z,20.25
2019-02-22T16:43:32.306Z,22.60
2019-02-22T16:46:00.975Z,22.93
2019-02-22T16:48:29.711Z,25.57
2019-02-22T16:50:58.395Z,23.73
2019-02-22T16:53:27.039Z,21.60
2019-02-22T16:55:55.739Z,20.82
2019-02-22T16:58:24.409Z,20.23
2019-02-22T17:00:53.054Z,21.37
2019-02-22T17:03:21.677Z,18.87
2019-02-22T17:05:50.657Z,18.50
2019-02-22T17:08:19.625Z,19.10
2019-02-22T17:10:48.294Z,19.17
2019-02-22T17:13:17.226Z,17.00
2019-02-22T17:15:45.884Z,16.57
2019-02-22T17:18:14.531Z,15.43
2019-02-22T17:20:43.214Z,15.48
2019-02-22T17:23:11.853Z,15.20
2019-02-22T17:25:40.782Z,17.05
2019-02-22T17:28:09.464Z,16.48
2019-02-22T17:30:38.111Z,19.10
2019-02-22T17:33:06.846Z,22.13
2019-02-22T17:35:35.492Z,19.10
2019-02-22T17:38:04.201Z,19.12
2019-02-22T17:40:32.904Z,21.25
2019-02-22T17:43:01.540Z,20.97
2019-02-22T17:45:30.166Z,19.90
2019-02-22T17:47:58.830Z,19.55
2019-02-22T17:50:27.472Z,20.48
2019-02-22T17:52:56.236Z,24.83
2019-02-22T17:55:24.868Z,23.75
2019-02-22T17:57:53.515Z,19.37
2019-02-22T18:00:22.875Z,23.67
2019-02-22T18:02:51.543Z,20.48
2019-02-22T18:05:20.179Z,23.18
2019-02-22T18:07:48.864Z,21.73
2019-02-22T18:10:17.487Z,21.60
2019-02-22T18:12:46.134Z,23.52
2019-02-22T18:15:14.909Z,23.00
2019-02-22T18:17:43.791Z,21.00
2019-02-22T18:20:12.425Z,26.73
2019-02-22T18:22:41.083Z,23.25
2019-02-22T18:25:09.811Z,25.12
2019-02-22T18:27:38.456Z,22.50
2019-02-22T18:30:08.693Z,22.50
2019-02-22T18:32:37.360Z,23.62
2019-02-22T18:35:06.228Z,21.90
2019-02-22T18:37:34.887Z,22.58
2019-02-22T18:40:03.570Z,20.45
2019-02-22T18:42:32.268Z,19.15
2019-02-22T18:45:00.947Z,20.65
2019-02-22T18:47:29.623Z,20.57
2019-02-22T18:49:58.265Z,20.43
2019-02-22T18:52:26.934Z,19.23
2019-02-22T18:54:55.595Z,20.10
2019-02-22T18:57:24.238Z,19.40
2019-02-22T18:59:52.872Z,18.50
2019-02-22T19:02:21.558Z,18.17
2019-02-22T19:04:50.176Z,18.27
2019-02-22T19:07:18.815Z,18.00
2019-02-22T19:09:47.450Z,18.60
2019-02-22T19:12:16.127Z,16.50
2019-02-22T19:14:44.776Z,18.42
2019-02-22T19:17:13.435Z,18.15
2019-02-22T19:19:42.075Z,18.65
2019-02-22T19:22:10.748Z,18.37
2019-02-22T19:24:39.395Z,18.20
2019-02-22T19:27:08.024Z,17.67
2019-02-22T19:29:36.947Z,18.77
2019-02-22T19:32:05.607Z,18.40
2019-02-22T19:34:34.267Z,19.60
2019-02-22T19:37:02.920Z,17.77
2019-02-22T19:39:31.827Z,19.15
2019-02-22T19:42:00.517Z,19.00
2019-02-22T19:44:29.126Z,17.95
2019-02-22T19:46:57.775Z,19.50
2019-02-22T19:49:26.384Z,16.80
2019-02-22T19:51:55.023Z,20.32
2019-02-22T19:54:23.672Z,20.10
2019-02-22T19:56:52.366Z,18.82
2019-02-22T19:59:21.011Z,20.35
2019-02-22T20:01:49.967Z,18.57
2019-02-22T20:04:18.602Z,17.52
2019-02-22T20:06:47.267Z,20.80
2019-02-22T20:09:15.924Z,20.08
2019-02-22T20:11:44.603Z,20.77
2019-02-22T20:14:13.238Z,20.55
2019-02-22T20:16:41.904Z,19.90
2019-02-22T20:19:10.543Z,17.05
2019-02-22T20:21:39.220Z,21.35
2019-02-22T20:24:08.165Z,19.98
2019-02-22T20:26:36.831Z,20.35
2019-02-22T20:29:05.475Z,20.25
2019-02-22T20:31:34.141Z,20.30
2019-02-22T20:34:02.893Z,19.73
2019-02-22T20:36:31.573Z,20.35
2019-02-22T20:39:00.229Z,21.27
2019-02-22T20:41:28.883Z,21.00
2019-02-22T20:43:57.537Z,20.72
2019-02-22T20:46:26.350Z,19.17
2019-02-22T20:49:00.715Z,20.37
2019-02-22T20:51:25.385Z,20.62
2019-02-22T20:53:54.023Z,21.10
2019-02-22T20:56:22.651Z,20.62
2019-02-22T20:58:51.347Z,20.80
2019-02-22T21:01:20.043Z,20.15
2019-02-22T21:03:48.707Z,20.10
2019-02-22T21:06:17.400Z,21.40
2019-02-22T21:08:46.343Z,20.57
2019-02-22T21:11:15.005Z,21.15
2019-02-22T21:13:43.987Z,19.00
2019-02-22T21:16:12.888Z,21.85
2019-02-22T21:18:41.545Z,22.42
2019-02-22T21:21:10.207Z,19.98
2019-02-22T21:23:38.868Z,20.48
2019-02-22T21:26:07.542Z,22.07
2019-02-22T21:28:36.188Z,20.20
2019-02-22T21:31:04.904Z,21.10
2019-02-22T21:33:33.553Z,22.40
2019-02-22T21:36:02.189Z,21.23
2019-02-22T21:38:30.872Z,20.75
2019-02-22T21:40:59.487Z,21.62
2019-02-22T21:43:28.143Z,20.45
2019-02-22T21:45:56.804Z,21.07
2019-02-22T21:48:27.818Z,23.18
2019-02-22T21:50:55.840Z,21.25
2019-02-22T21:53:25.210Z,21.30
2019-02-22T21:55:53.973Z,21.10
2019-02-22T21:58:22.613Z,19.95
2019-02-22T22:00:51.505Z,22.15
2019-02-22T22:03:20.159Z,20.08
2019-02-22T22:05:48.791Z,20.32
2019-02-22T22:08:17.502Z,18.52
2019-02-22T22:10:46.116Z,18.17
2019-02-22T22:13:14.767Z,21.05
2019-02-22T22:15:43.385Z,19.25
2019-02-22T22:18:12.034Z,19.20
2019-02-22T22:20:40.692Z,20.05
2019-02-22T22:23:09.387Z,17.73
2019-02-22T22:25:38.018Z,19.30
2019-02-22T22:28:07.223Z,18.92
2019-02-22T22:30:35.846Z,18.30
2019-02-22T22:33:04.487Z,16.67
2019-02-22T22:35:33.145Z,19.80
2019-02-22T22:38:02.077Z,15.75
2019-02-22T22:40:31.227Z,15.72
2019-02-22T22:42:59.862Z,15.25
2019-02-22T22:45:28.519Z,17.77
2019-02-22T22:47:57.316Z,15.18
2019-02-22T22:50:26.182Z,15.10
2019-02-22T22:52:54.830Z,14.43
2019-02-22T22:55:23.471Z,16.97
2019-02-22T22:57:52.121Z,16.45
2019-02-22T23:00:49.842Z,17.32
2019-02-22T23:03:18.752Z,16.67
2019-02-22T23:05:47.456Z,17.65
2019-02-22T23:08:16.111Z,16.50
2019-02-22T23:10:44.839Z,16.75
2019-02-22T23:13:13.515Z,15.75
2019-02-22T23:15:42.167Z,14.28
2019-02-22T23:18:10.815Z,15.70
2019-02-22T23:20:39.506Z,15.68
2019-02-22T23:23:08.167Z,15.68
2019-02-22T23:25:36.812Z,14.07
2019-02-22T23:28:05.453Z,14.55
2019-02-22T23:30:34.160Z,16.40
2019-02-22T23:33:02.897Z,15.30
2019-02-22T23:35:31.643Z,13.95
2019-02-22T23:38:00.325Z,13.70
2019-02-22T23:40:28.973Z,12.78
2019-02-22T23:42:57.607Z,15.23
2019-02-22T23:45:26.256Z,13.03
2019-02-22T23:47:54.880Z,15.80
2019-02-22T23:50:23.539Z,13.10
2019-02-22T23:52:52.199Z,13.70
2019-02-22T23:55:20.847Z,14.03
2019-02-22T23:57:49.503Z,14.65
